Hauptseite
METAR-TAF:

METAR-TAF

Flughäfen :

Belfast International Airport

Belfast, Nordirland

Breite: 54-39N, Länge: 006-13W, Höhe: 81 m

Beobachtung

Neuester Wetterbericht von vor 39 Minuten, um 13:20 UTC
Wind 3 kt aus unterschiedlichen Richtungen
Temperatur 14°C
Luftfeuchtigkeit 72%
Luftdruck 1023 hPa
Sichtweite 10 km oder mehr
Durchbrochene Bewölkung in der Höhe von 1900 ft

METAR: EGAA 221320Z VRB03KT 9999 BKN019 14/09 Q1023

Zeit: 14:59 (13:59 UTC)

Prognose

Neuester Wetterbericht von vor 3 Stunden und 1 Minuten, um 10:58 UTC
Gültige Prognose vom 22 um 12 UTC bis 23 um 12 UTC
Wind 6 kt aus Nordost
Sichtweite 10 km oder mehr
Leicht bewölkt in der Höhe von 1800 ft
Aufgelockert bewölkt in der Höhe von 2500 ft
Wahrscheinlichkeit 30%
vom 23 um 03 UTC bis 23 um 10 UTC
Sichtweite: 8000 m

TAF: EGAA 221058Z 2212/2312 04006KT 9999 FEW018 SCT025 PROB30 2303/2310 8000

Wetterbeobachtungen und Prognosen von mehr als 4000 Flughäfen (METAR und TAF Bericht).

Die verfügbaren Stationen werden durch gelbe und rote Markierungen auf der Karte dargestellt.

Führen Sie die Maus auf sie, um den Namen der Station zu sehen.

Darauf klicken, um die Beobachtung von Wetterbeobachtungen und Prognosen zu sehen.

Um die Karte zu ändern : klicken Sie auf den grünen Tasten mit einem schwarzen Kreuz Zum Vergrößern, auf den grünen Button mit einem Gedankenstrich zu verkleinern, oder auf die grünen Pfeile für benachbarte Karten.


METAR-TAF: